createdAt,value
2018-04-23T00:00:41.662Z,51.80
2018-04-23T00:03:10.562Z,52.10
2018-04-23T00:05:38.674Z,52.00
2018-04-23T00:08:06.806Z,52.40
2018-04-23T00:10:34.980Z,52.20
2018-04-23T00:13:03.855Z,51.90
2018-04-23T00:15:32.749Z,51.70
2018-04-23T00:18:01.651Z,52.40
2018-04-23T00:20:29.766Z,52.30
2018-04-23T00:22:57.978Z,52.10
2018-04-23T00:25:26.886Z,51.50
2018-04-23T00:27:55.060Z,51.40
2018-04-23T00:30:23.194Z,51.30
2018-04-23T00:32:51.374Z,50.30
2018-04-23T00:35:20.295Z,50.70
2018-04-23T00:37:48.472Z,50.70
2018-04-23T00:40:17.427Z,50.20
2018-04-23T00:42:46.416Z,49.80
2018-04-23T00:45:15.346Z,49.70
2018-04-23T00:47:44.304Z,49.60
2018-04-23T00:50:13.187Z,49.70
2018-04-23T00:52:41.362Z,49.70
2018-04-23T00:55:10.259Z,51.50
2018-04-23T00:57:39.146Z,50.90
2018-04-23T01:00:07.275Z,50.80
2018-04-23T01:02:35.512Z,50.90
2018-04-23T01:05:03.625Z,51.10
2018-04-23T01:07:31.795Z,51.60
2018-04-23T01:09:59.920Z,51.30
2018-04-23T01:12:28.086Z,51.10
2018-04-23T01:14:56.967Z,51.20
2018-04-23T01:17:25.874Z,51.50
2018-04-23T01:19:54.746Z,51.90
2018-04-23T01:22:23.647Z,51.50
2018-04-23T01:24:52.623Z,51.30
2018-04-23T01:27:20.784Z,51.30
2018-04-23T01:29:50.424Z,51.60
2018-04-23T01:32:18.539Z,51.60
2018-04-23T01:34:46.662Z,50.90
2018-04-23T01:37:15.639Z,52.80
2018-04-23T01:39:44.635Z,53.10
2018-04-23T01:42:13.626Z,51.90
2018-04-23T01:44:42.511Z,53.50
2018-04-23T01:47:11.398Z,53.90
2018-04-23T01:49:40.291Z,53.50
2018-04-23T01:52:09.203Z,54.40
2018-04-23T01:54:37.355Z,53.80
2018-04-23T01:57:06.232Z,54.90
2018-04-23T01:59:34.351Z,54.70
2018-04-23T02:02:02.491Z,56.00
2018-04-23T02:04:31.483Z,56.20
2018-04-23T02:07:00.359Z,56.40
2018-04-23T02:09:28.545Z,56.40
2018-04-23T02:11:57.423Z,56.80
2018-04-23T02:14:25.542Z,56.70
2018-04-23T02:16:53.658Z,56.70
2018-04-23T02:19:21.791Z,57.40
2018-04-23T02:21:49.902Z,57.30
2018-04-23T02:24:18.032Z,57.30
2018-04-23T02:26:46.259Z,57.40
2018-04-23T02:29:15.144Z,57.00
2018-04-23T02:31:43.287Z,56.90
2018-04-23T02:34:11.502Z,56.40
2018-04-23T02:36:40.390Z,55.40
2018-04-23T02:39:09.400Z,55.70
2018-04-23T02:41:38.296Z,55.00
2018-04-23T02:44:06.424Z,55.00
2018-04-23T02:46:34.611Z,55.40
2018-04-23T02:49:03.510Z,56.00
2018-04-23T02:51:32.394Z,55.40
2018-04-23T02:54:01.383Z,56.60
2018-04-23T02:56:30.276Z,56.20
2018-04-23T02:58:59.162Z,55.20
2018-04-23T03:01:28.148Z,55.40
2018-04-23T03:03:56.293Z,55.30
2018-04-23T03:06:24.419Z,55.60
2018-04-23T03:11:36.831Z,55.30
2018-04-23T03:14:05.811Z,55.70
2018-04-23T03:16:33.970Z,55.70
2018-04-23T03:19:02.171Z,56.80
2018-04-23T03:21:31.051Z,55.90
2018-04-23T03:23:59.955Z,56.20
2018-04-23T03:26:28.831Z,56.30
2018-04-23T03:28:57.707Z,56.60
2018-04-23T03:31:25.837Z,56.60
2018-04-23T03:33:53.965Z,56.70
2018-04-23T03:36:22.878Z,57.30
2018-04-23T03:38:51.008Z,57.20
2018-04-23T03:41:19.211Z,57.20
2018-04-23T03:43:48.088Z,57.10
2018-04-23T03:46:17.081Z,57.00
2018-04-23T03:48:46.050Z,56.80
2018-04-23T03:51:14.200Z,56.70
2018-04-23T03:53:42.420Z,57.00
2018-04-23T03:56:11.415Z,57.80
2018-04-23T03:58:40.302Z,57.90
2018-04-23T04:01:09.204Z,58.80
2018-04-23T04:03:38.078Z,58.60
2018-04-23T04:06:06.982Z,58.00
2018-04-23T04:08:35.100Z,58.00
2018-04-23T04:11:03.214Z,58.70
2018-04-23T04:13:44.105Z,59.00
2018-04-23T04:16:23.893Z,58.90
2018-04-23T04:18:52.027Z,59.00
2018-04-23T04:21:20.152Z,59.10
2018-04-23T04:23:49.818Z,59.00
2018-04-23T04:26:17.956Z,58.90
2018-04-23T04:28:46.853Z,59.60
2018-04-23T04:31:14.975Z,59.50
2018-04-23T04:33:43.190Z,60.10
2018-04-23T04:36:12.184Z,58.70
2018-04-23T04:38:41.208Z,57.90
2018-04-23T04:41:09.347Z,57.90
2018-04-23T04:43:38.230Z,58.00
2018-04-23T04:46:06.343Z,58.00
2018-04-23T04:48:34.564Z,58.40
2018-04-23T04:51:03.481Z,58.50
2018-04-23T04:53:32.376Z,58.90
2018-04-23T04:56:00.535Z,59.00
2018-04-23T04:58:29.418Z,59.10
2018-04-23T05:00:58.298Z,58.40
2018-04-23T05:03:26.419Z,58.30
2018-04-23T05:05:54.571Z,57.70
2018-04-23T05:08:23.438Z,57.50
2018-04-23T05:10:52.471Z,57.60
2018-04-23T05:13:20.610Z,57.50
2018-04-23T05:15:49.596Z,58.00
2018-04-23T05:18:18.540Z,58.00
2018-04-23T05:20:46.684Z,58.30
2018-04-23T05:23:14.798Z,58.50
2018-04-23T05:25:42.963Z,59.00
2018-04-23T05:28:11.103Z,58.20
2018-04-23T05:30:39.243Z,57.90
2018-04-23T05:33:07.440Z,58.10
2018-04-23T05:35:35.591Z,59.10
2018-04-23T05:38:04.490Z,58.80
2018-04-23T05:40:33.404Z,57.10
2018-04-23T05:43:01.560Z,57.10
2018-04-23T05:45:30.437Z,56.90
2018-04-23T05:47:59.347Z,56.30
2018-04-23T05:50:27.467Z,56.30
2018-04-23T05:52:55.674Z,55.10
2018-04-23T05:55:24.576Z,54.50
2018-04-23T05:57:52.715Z,54.50
2018-04-23T06:00:20.847Z,53.70
2018-04-23T06:02:48.984Z,54.20
2018-04-23T06:05:17.970Z,54.30
2018-04-23T06:07:46.871Z,55.40
2018-04-23T06:10:15.887Z,54.10
2018-04-23T06:12:44.007Z,54.10
2018-04-23T06:15:12.211Z,54.00
2018-04-23T06:17:40.358Z,54.20
2018-04-23T06:20:09.268Z,53.90
2018-04-23T06:22:38.140Z,52.20
2018-04-23T06:25:07.083Z,52.80
2018-04-23T06:27:35.199Z,52.70
2018-04-23T06:30:04.100Z,52.60
2018-04-23T06:32:32.988Z,52.80
2018-04-23T06:35:01.893Z,52.10
2018-04-23T06:37:30.811Z,51.40
2018-04-23T06:39:58.937Z,51.40
2018-04-23T06:42:27.930Z,50.80
2018-04-23T06:44:56.940Z,51.10
2018-04-23T06:47:25.907Z,50.30
2018-04-23T06:49:54.220Z,51.00
2018-04-23T06:52:23.077Z,51.30
2018-04-23T06:54:52.071Z,49.10
2018-04-23T06:57:20.951Z,49.00
2018-04-23T06:59:49.859Z,48.70
2018-04-23T07:02:18.783Z,48.70
2018-04-23T07:04:47.004Z,48.70
2018-04-23T07:07:15.097Z,48.60
2018-04-23T07:09:44.078Z,48.60
2018-04-23T07:12:12.984Z,48.50
2018-04-23T07:14:41.876Z,48.20
2018-04-23T07:17:09.998Z,48.00
2018-04-23T07:19:38.123Z,48.40
2018-04-23T07:22:06.250Z,48.50
2018-04-23T07:24:35.986Z,50.20
2018-04-23T07:27:04.983Z,49.50
2018-04-23T07:29:33.865Z,49.40
2018-04-23T07:32:02.041Z,49.30
2018-04-23T07:34:31.078Z,47.60
2018-04-23T07:36:59.199Z,47.60
2018-04-23T07:39:28.112Z,47.90
2018-04-23T07:41:56.284Z,47.80
2018-04-23T07:44:24.443Z,46.20
2018-04-23T07:46:53.423Z,46.00
2018-04-23T07:49:22.318Z,44.20
2018-04-23T07:51:51.208Z,43.60
2018-04-23T07:54:20.107Z,42.90
2018-04-23T07:56:49.003Z,43.40
2018-04-23T07:59:17.983Z,43.80
2018-04-23T08:01:46.869Z,44.00
2018-04-23T08:04:15.768Z,45.00
2018-04-23T08:06:44.639Z,44.60
2018-04-23T08:09:13.558Z,46.20
2018-04-23T08:11:41.707Z,45.50
2018-04-23T08:14:10.590Z,44.20
2018-04-23T08:16:39.504Z,44.00
2018-04-23T08:19:07.680Z,43.70
2018-04-23T08:21:35.849Z,42.30
2018-04-23T08:24:04.835Z,40.90
2018-04-23T08:26:33.802Z,40.80
2018-04-23T08:29:01.954Z,40.70
2018-04-23T08:31:30.200Z,39.50
2018-04-23T08:33:59.109Z,36.50
2018-04-23T08:36:27.983Z,36.50
2018-04-23T08:38:56.131Z,37.00
2018-04-23T08:41:25.036Z,36.00
2018-04-23T08:43:53.197Z,36.00
2018-04-23T08:46:22.175Z,35.50
2018-04-23T08:48:51.126Z,36.30
2018-04-23T08:51:20.076Z,36.40
2018-04-23T08:53:48.240Z,36.40
2018-04-23T08:56:17.423Z,36.00
2018-04-23T08:58:46.336Z,36.00
2018-04-23T09:01:14.452Z,36.00
2018-04-23T09:03:42.581Z,36.30
2018-04-23T09:06:10.700Z,35.90
2018-04-23T09:08:38.912Z,36.50
2018-04-23T09:11:07.802Z,37.20
2018-04-23T09:13:35.973Z,37.10
2018-04-23T09:16:04.860Z,37.40
2018-04-23T09:18:33.864Z,36.40
2018-04-23T09:21:02.018Z,36.30
2018-04-23T09:23:30.922Z,36.20
2018-04-23T09:25:59.095Z,36.20
2018-04-23T09:28:27.215Z,36.60
2018-04-23T09:30:55.460Z,35.20
2018-04-23T09:33:24.330Z,34.50
2018-04-23T09:35:52.471Z,34.50
2018-04-23T09:38:20.614Z,33.90
2018-04-23T09:40:48.823Z,33.20
2018-04-23T09:43:16.971Z,32.90
2018-04-23T09:45:45.124Z,34.50
2018-04-23T09:48:13.251Z,32.90
2018-04-23T09:50:42.137Z,32.60
2018-04-23T09:53:10.254Z,32.50
2018-04-23T09:55:38.399Z,33.50
2018-04-23T09:58:07.333Z,34.20
2018-04-23T10:00:35.560Z,34.10
2018-04-23T10:03:09.739Z,33.10
2018-04-23T10:05:37.892Z,33.10
2018-04-23T10:08:06.018Z,33.70
2018-04-23T10:10:34.904Z,33.90
2018-04-23T10:13:03.775Z,34.50
2018-04-23T10:15:32.679Z,34.70
2018-04-23T10:18:00.948Z,34.60
2018-04-23T10:20:29.827Z,33.90
2018-04-23T10:22:58.724Z,34.30
2018-04-23T10:25:27.623Z,34.80
2018-04-23T10:27:56.615Z,33.90
2018-04-23T10:30:25.519Z,34.90
2018-04-23T10:32:53.634Z,34.90
2018-04-23T10:35:21.803Z,35.20
2018-04-23T10:37:49.927Z,35.10
2018-04-23T10:40:18.072Z,34.70
2018-04-23T10:42:46.289Z,35.60
2018-04-23T10:45:15.110Z,35.20
2018-04-23T10:47:43.333Z,35.30
2018-04-23T10:50:12.238Z,36.00
2018-04-23T10:52:40.427Z,36.00
2018-04-23T10:55:08.532Z,36.00
2018-04-23T10:57:36.657Z,36.50
2018-04-23T11:00:04.794Z,36.80
2018-04-23T11:02:33.896Z,36.00
2018-04-23T11:05:02.827Z,36.20
2018-04-23T11:07:30.941Z,36.20
2018-04-23T11:09:59.067Z,36.80
2018-04-23T11:12:27.300Z,36.40
2018-04-23T11:14:56.208Z,36.40
2018-04-23T11:17:24.349Z,36.30
2018-04-23T11:19:53.987Z,34.90
2018-04-23T11:22:22.875Z,35.50
2018-04-23T11:24:51.019Z,35.40
2018-04-23T11:27:19.180Z,35.70
2018-04-23T11:29:47.387Z,35.50
2018-04-23T11:32:16.280Z,34.70
2018-04-23T11:34:45.216Z,33.70
2018-04-23T11:37:13.356Z,33.60
2018-04-23T11:39:41.485Z,33.80
2018-04-23T11:42:09.605Z,33.50
2018-04-23T11:44:37.765Z,34.80
2018-04-23T11:47:05.933Z,35.70
2018-04-23T11:49:34.824Z,35.90
2018-04-23T11:52:02.942Z,35.80
2018-04-23T11:54:31.085Z,36.60
2018-04-23T11:56:59.246Z,37.40
2018-04-23T11:59:28.147Z,36.80
2018-04-23T12:01:56.256Z,36.80
2018-04-23T12:04:24.434Z,37.20
2018-04-23T12:06:52.535Z,37.90
2018-04-23T12:09:21.450Z,36.20
2018-04-23T12:11:49.587Z,36.20
2018-04-23T12:14:17.721Z,36.40
2018-04-23T12:16:45.972Z,37.20
2018-04-23T12:19:14.964Z,37.00
2018-04-23T12:21:43.848Z,36.20
2018-04-23T12:24:12.851Z,35.10
2018-04-23T12:26:40.991Z,35.00
2018-04-23T12:29:10.013Z,35.20
2018-04-23T12:31:38.946Z,35.90
2018-04-23T12:34:07.111Z,35.90
2018-04-23T12:36:35.348Z,35.60
2018-04-23T12:39:04.237Z,34.70
2018-04-23T12:41:33.124Z,34.30
2018-04-23T12:44:01.279Z,34.30
2018-04-23T12:46:30.783Z,33.60
2018-04-23T12:48:59.675Z,34.10
2018-04-23T12:51:27.798Z,34.10
2018-04-23T12:53:55.967Z,33.70
2018-04-23T12:56:24.192Z,34.30
2018-04-23T12:58:52.319Z,33.90
2018-04-23T13:01:20.462Z,33.90
2018-04-23T13:03:48.710Z,34.90
2018-04-23T13:06:17.832Z,34.00
2018-04-23T13:08:46.078Z,34.00
2018-04-23T13:11:14.228Z,33.80
2018-04-23T13:13:42.344Z,32.50
2018-04-23T13:16:10.586Z,33.00
2018-04-23T13:18:39.487Z,33.60
2018-04-23T13:21:08.374Z,34.50
2018-04-23T13:23:37.351Z,34.60
2018-04-23T13:26:06.236Z,36.30
2018-04-23T13:28:35.210Z,39.00
2018-04-23T13:31:03.340Z,39.00
2018-04-23T13:33:31.469Z,40.00
2018-04-23T13:36:01.304Z,41.50
2018-04-23T13:38:29.469Z,41.10
2018-04-23T13:40:58.387Z,41.00
2018-04-23T13:43:26.534Z,41.00
2018-04-23T13:45:55.425Z,41.30
2018-04-23T13:48:24.407Z,41.10
2018-04-23T13:50:52.613Z,41.10
2018-04-23T13:53:21.496Z,41.70
2018-04-23T13:55:49.632Z,41.70
2018-04-23T13:58:17.762Z,42.90
2018-04-23T14:00:46.000Z,43.40
2018-04-23T14:03:14.135Z,43.70
2018-04-23T14:05:43.061Z,44.20
2018-04-23T14:08:11.977Z,46.00
2018-04-23T14:10:40.113Z,45.90
2018-04-23T14:13:09.033Z,45.40
2018-04-23T14:15:37.151Z,45.30
2018-04-23T14:18:05.308Z,45.80
2018-04-23T14:20:33.439Z,45.80
2018-04-23T14:23:01.568Z,44.40
2018-04-23T14:25:29.714Z,42.50
2018-04-23T14:27:57.828Z,42.30
2018-04-23T14:30:26.740Z,39.00
2018-04-23T14:32:54.897Z,38.90
2018-04-23T14:35:23.012Z,38.70
2018-04-23T14:37:51.279Z,38.20
2018-04-23T14:40:19.405Z,36.20
2018-04-23T14:42:48.309Z,37.50
2018-04-23T14:45:17.215Z,38.10
2018-04-23T14:47:46.089Z,38.60
2018-04-23T14:50:14.992Z,38.30
2018-04-23T14:52:43.172Z,38.30
2018-04-23T14:55:11.449Z,36.50
2018-04-23T14:57:39.570Z,36.00
2018-04-23T15:00:07.700Z,37.80
2018-04-23T15:02:35.854Z,39.60
2018-04-23T15:05:04.759Z,43.70
2018-04-23T15:07:32.985Z,43.60
2018-04-23T15:10:01.186Z,45.00
2018-04-23T15:12:30.081Z,47.40
2018-04-23T15:14:59.096Z,47.80
2018-04-23T15:17:27.218Z,47.70
2018-04-23T15:19:55.408Z,48.10
2018-04-23T15:22:24.397Z,49.00
2018-04-23T15:24:53.292Z,49.70
2018-04-23T15:27:22.281Z,50.50
2018-04-23T15:29:51.194Z,51.50
2018-04-23T15:32:19.337Z,51.40
2018-04-23T15:34:48.228Z,52.90
2018-04-23T15:37:17.160Z,54.30
2018-04-23T15:39:45.281Z,54.20
2018-04-23T15:42:13.570Z,54.70
2018-04-23T15:44:42.468Z,54.50
2018-04-23T15:47:11.510Z,54.60
2018-04-23T15:49:39.655Z,54.50
2018-04-23T15:52:07.809Z,54.60
2018-04-23T15:54:36.689Z,54.10
2018-04-23T15:57:04.880Z,54.10
2018-04-23T15:59:33.019Z,52.90
2018-04-23T16:02:01.212Z,51.10
2018-04-23T16:04:29.393Z,50.00
2018-04-23T16:06:57.527Z,49.00
2018-04-23T16:09:25.722Z,48.70
2018-04-23T16:11:54.652Z,47.50
2018-04-23T16:14:22.921Z,47.60
2018-04-23T16:16:51.034Z,48.30
2018-04-23T16:19:19.168Z,49.00
2018-04-23T16:21:47.419Z,49.90
2018-04-23T16:24:15.566Z,51.40
2018-04-23T16:26:43.735Z,52.30
2018-04-23T16:29:13.381Z,52.10
2018-04-23T16:31:42.415Z,53.30
2018-04-23T16:34:10.582Z,53.30
2018-04-23T16:36:38.799Z,53.70
2018-04-23T16:39:06.971Z,54.30
2018-04-23T16:41:35.103Z,55.20
2018-04-23T16:44:03.275Z,56.10
2018-04-23T16:46:31.406Z,56.30
2018-04-23T16:48:59.555Z,56.60
2018-04-23T16:51:28.452Z,56.50
2018-04-23T16:53:57.338Z,56.80
2018-04-23T16:56:26.240Z,57.70
2018-04-23T16:58:54.448Z,57.60
2018-04-23T17:01:22.585Z,58.40
2018-04-23T17:03:50.749Z,58.70
2018-04-23T17:06:19.653Z,58.80
2018-04-23T17:08:47.891Z,58.80
2018-04-23T17:11:16.820Z,58.80
2018-04-23T17:13:44.976Z,58.80
2018-04-23T17:16:13.200Z,58.40
2018-04-23T17:18:42.138Z,59.30
2018-04-23T17:21:10.299Z,58.60
2018-04-23T17:23:38.452Z,58.30
2018-04-23T17:26:06.699Z,58.40
2018-04-23T17:28:34.838Z,58.20
2018-04-23T17:31:02.968Z,58.40
2018-04-23T17:33:31.099Z,58.20
2018-04-23T17:35:59.273Z,58.20
2018-04-23T17:38:27.402Z,58.40
2018-04-23T17:40:56.368Z,58.60
2018-04-23T17:43:24.493Z,58.60
2018-04-23T17:45:52.670Z,58.20
2018-04-23T17:48:21.545Z,58.80
2018-04-23T17:50:49.667Z,58.80
2018-04-23T17:53:17.800Z,59.30
2018-04-23T17:55:45.983Z,60.50
2018-04-23T17:58:14.164Z,60.40
2018-04-23T18:00:42.331Z,61.00
2018-04-23T18:03:10.448Z,61.30
2018-04-23T18:05:39.372Z,62.10
2018-04-23T18:08:07.501Z,61.90
2018-04-23T18:10:35.755Z,62.30
2018-04-23T18:13:03.883Z,62.50
2018-04-23T18:15:32.801Z,63.20
2018-04-23T18:18:00.941Z,63.10
2018-04-23T18:20:29.112Z,63.30
2018-04-23T18:22:57.309Z,63.60
2018-04-23T18:25:26.243Z,64.10
2018-04-23T18:27:54.458Z,64.00
2018-04-23T18:30:22.629Z,64.20
2018-04-23T18:32:50.776Z,64.50
2018-04-23T18:35:20.516Z,65.10
2018-04-23T18:37:49.626Z,65.30
2018-04-23T18:40:17.811Z,65.20
2018-04-23T18:42:45.940Z,65.20
2018-04-23T18:45:14.975Z,65.50
2018-04-23T18:47:43.117Z,65.40
2018-04-23T18:50:11.263Z,65.40
2018-04-23T18:52:39.438Z,65.50
2018-04-23T18:55:07.599Z,65.60
2018-04-23T18:57:35.727Z,65.60
2018-04-23T19:00:03.890Z,65.30
2018-04-23T19:02:32.049Z,65.30
2018-04-23T19:05:01.022Z,65.40
2018-04-23T19:07:29.177Z,65.40
2018-04-23T19:09:57.414Z,65.50
2018-04-23T19:12:25.556Z,65.50
2018-04-23T19:14:53.698Z,66.00
2018-04-23T19:17:21.893Z,66.60
2018-04-23T19:19:50.817Z,67.50
2018-04-23T19:22:18.950Z,67.50
2018-04-23T19:24:48.788Z,68.40
2018-04-23T19:27:17.210Z,68.40
2018-04-23T19:29:45.349Z,69.00
2018-04-23T19:32:13.521Z,69.30
2018-04-23T19:34:41.680Z,69.20
2018-04-23T19:37:09.840Z,69.40
2018-04-23T19:39:38.029Z,69.70
2018-04-23T19:42:06.161Z,70.60
2018-04-23T19:44:34.405Z,70.10
2018-04-23T19:47:02.615Z,70.80
2018-04-23T19:49:31.554Z,70.10
2018-04-23T19:51:59.798Z,70.00
2018-04-23T19:54:27.940Z,70.00
2018-04-23T19:56:57.046Z,70.30
2018-04-23T19:59:25.982Z,70.30
2018-04-23T20:01:54.753Z,70.30
2018-04-23T20:04:23.193Z,70.40
2018-04-23T20:06:52.242Z,70.00
2018-04-23T20:09:20.311Z,70.00
2018-04-23T20:11:48.480Z,70.00
2018-04-23T20:14:16.636Z,70.00
2018-04-23T20:16:44.800Z,70.20
2018-04-23T20:19:13.051Z,70.50
2018-04-23T20:21:41.981Z,72.00
2018-04-23T20:24:10.259Z,71.90
2018-04-23T20:26:38.495Z,72.90
2018-04-23T20:29:07.492Z,74.10
2018-04-23T20:31:35.656Z,74.00
2018-04-23T20:34:04.598Z,75.10
2018-04-23T20:36:32.858Z,75.00
2018-04-23T20:39:01.001Z,75.90
2018-04-23T20:41:29.921Z,75.50
2018-04-23T20:43:58.058Z,75.50
2018-04-23T20:46:26.975Z,75.30
2018-04-23T20:48:55.120Z,75.30
2018-04-23T20:51:24.144Z,74.80
2018-04-23T20:53:52.301Z,74.80
2018-04-23T20:56:20.466Z,74.80
2018-04-23T20:58:49.456Z,75.70
2018-04-23T21:01:17.722Z,75.70
2018-04-23T21:03:46.645Z,76.00
2018-04-23T21:06:14.914Z,75.90
2018-04-23T21:08:43.034Z,76.90
2018-04-23T21:11:11.312Z,77.80
2018-04-23T21:13:40.119Z,78.40
2018-04-23T21:16:09.025Z,79.20
2018-04-23T21:18:37.151Z,79.20
2018-04-23T21:21:05.320Z,80.20
2018-04-23T21:23:33.450Z,80.70
2018-04-23T21:26:01.615Z,80.80
2018-04-23T21:28:29.753Z,80.80
2018-04-23T21:30:57.976Z,81.20
2018-04-23T21:33:26.108Z,80.00
2018-04-23T21:35:55.022Z,80.60
2018-04-23T21:38:23.290Z,80.50
2018-04-23T21:40:51.447Z,80.50
2018-04-23T21:43:20.335Z,81.20
2018-04-23T21:45:49.346Z,81.30
2018-04-23T21:48:17.513Z,81.20
2018-04-23T21:50:45.665Z,82.20
2018-04-23T21:53:13.798Z,82.30
2018-04-23T21:55:41.928Z,82.60
2018-04-23T21:58:10.141Z,83.30
2018-04-23T22:00:38.366Z,83.80
2018-04-23T22:03:07.261Z,84.70
2018-04-23T22:05:35.382Z,84.70
2018-04-23T22:08:03.608Z,84.90
2018-04-23T22:10:31.761Z,85.40
2018-04-23T22:13:00.669Z,87.50
2018-04-23T22:15:28.857Z,87.50
2018-04-23T22:17:57.873Z,88.40
2018-04-23T22:20:25.991Z,88.30
2018-04-23T22:22:54.917Z,89.10
2018-04-23T22:25:23.021Z,89.70
2018-04-23T22:27:51.217Z,89.20
2018-04-23T22:30:20.116Z,89.20
2018-04-23T22:32:48.251Z,89.20
2018-04-23T22:35:16.385Z,89.30
2018-04-23T22:37:44.503Z,89.80
2018-04-23T22:40:12.667Z,90.10
2018-04-23T22:42:40.805Z,90.50
2018-04-23T22:45:08.954Z,90.70
2018-04-23T22:47:37.114Z,90.90
2018-04-23T22:50:05.276Z,90.70
2018-04-23T22:52:33.410Z,90.70
2018-04-23T22:55:01.538Z,91.10
2018-04-23T22:57:30.527Z,90.90
2018-04-23T22:59:59.506Z,90.90
2018-04-23T23:02:28.495Z,90.80
2018-04-23T23:04:57.489Z,90.90
2018-04-23T23:07:26.401Z,90.60
2018-04-23T23:09:54.536Z,90.60
2018-04-23T23:12:22.671Z,90.50
2018-04-23T23:14:50.782Z,90.70
2018-04-23T23:17:18.986Z,90.60
2018-04-23T23:19:47.107Z,91.00
2018-04-23T23:22:15.313Z,90.80
2018-04-23T23:24:44.207Z,90.90
2018-04-23T23:27:12.339Z,90.90
2018-04-23T23:29:41.268Z,90.90
2018-04-23T23:32:10.157Z,90.80
2018-04-23T23:34:39.054Z,90.60
2018-04-23T23:37:07.179Z,90.60
2018-04-23T23:39:35.303Z,90.70
2018-04-23T23:42:03.479Z,90.80
2018-04-23T23:44:31.632Z,90.70
2018-04-23T23:46:59.796Z,90.70
2018-04-23T23:49:28.707Z,90.90
2018-04-23T23:51:56.858Z,90.80
2018-04-23T23:54:25.774Z,90.70
2018-04-23T23:56:53.927Z,90.70
2018-04-23T23:59:22.100Z,90.70
